createdAt,value
2023-01-18T00:00:20.096Z,2.48
2023-01-18T00:03:26.249Z,2.42
2023-01-18T00:06:32.459Z,2.39
2023-01-18T00:09:38.644Z,2.35
2023-01-18T00:12:45.103Z,2.29
2023-01-18T00:15:51.411Z,2.23
2023-01-18T00:18:56.966Z,2.14
2023-01-18T00:22:03.419Z,2.08
2023-01-18T00:25:12.596Z,1.99
2023-01-18T00:28:21.858Z,1.89
2023-01-18T00:31:28.443Z,1.84
2023-01-18T00:34:34.888Z,1.73
2023-01-18T00:37:39.428Z,1.67
2023-01-18T00:40:47.969Z,1.61
2023-01-18T00:43:55.557Z,1.60
2023-01-18T00:47:01.851Z,1.61
2023-01-18T00:50:06.889Z,1.63
2023-01-18T00:53:13.085Z,1.61
2023-01-18T00:56:22.831Z,1.58
2023-01-18T00:59:29.243Z,1.52
2023-01-18T01:02:35.436Z,1.47
2023-01-18T01:05:59.400Z,1.45
2023-01-18T01:09:05.638Z,1.42
2023-01-18T01:12:29.423Z,1.44
2023-01-18T01:15:53.214Z,1.46
2023-01-18T01:19:17.095Z,1.46
2023-01-18T01:22:40.871Z,1.42
2023-01-18T01:26:08.084Z,1.39
2023-01-18T01:29:14.390Z,1.37
2023-01-18T01:32:20.655Z,1.35
2023-01-18T01:35:25.207Z,1.38
2023-01-18T01:38:32.077Z,1.40
2023-01-18T01:41:38.791Z,1.38
2023-01-18T01:44:50.263Z,1.36
2023-01-18T01:47:58.523Z,1.38
2023-01-18T01:51:05.010Z,1.42
2023-01-18T01:54:16.060Z,1.45
2023-01-18T01:57:26.055Z,1.49
2023-01-18T02:00:32.662Z,1.56
2023-01-18T02:03:42.674Z,1.58
2023-01-18T02:06:49.031Z,1.57
2023-01-18T02:09:53.932Z,1.58
2023-01-18T02:13:01.808Z,1.58
2023-01-18T02:16:15.052Z,1.55
2023-01-18T02:20:04.815Z,1.45
2023-01-18T02:23:38.614Z,1.28
2023-01-18T02:27:00.895Z,1.24
2023-01-18T02:30:18.243Z,1.28
2023-01-18T02:33:34.303Z,1.35
2023-01-18T02:36:43.351Z,1.39
2023-01-18T02:39:59.869Z,1.43
2023-01-18T02:43:27.596Z,1.46
2023-01-18T02:46:34.984Z,1.52
2023-01-18T02:49:41.339Z,1.55
2023-01-18T02:52:47.438Z,1.57
2023-01-18T02:56:00.032Z,1.58
2023-01-18T02:59:13.263Z,1.60
2023-01-18T03:02:21.998Z,1.62
2023-01-18T03:05:31.108Z,1.63
2023-01-18T03:08:42.506Z,1.64
2023-01-18T03:11:58.956Z,1.69
2023-01-18T03:15:13.145Z,1.77
2023-01-18T03:18:24.841Z,1.78
2023-01-18T03:21:53.436Z,1.75
2023-01-18T03:24:59.948Z,1.68
2023-01-18T03:28:28.013Z,1.64
2023-01-18T03:31:58.004Z,1.64
2023-01-18T03:35:08.987Z,1.69
2023-01-18T03:38:15.939Z,1.70
2023-01-18T03:41:24.325Z,1.68
2023-01-18T03:44:36.485Z,1.66
2023-01-18T03:47:42.955Z,1.61
2023-01-18T03:50:53.863Z,1.53
2023-01-18T03:54:07.513Z,1.49
2023-01-18T03:57:21.732Z,1.45
2023-01-18T04:00:28.271Z,1.44
2023-01-18T04:03:35.231Z,1.43
2023-01-18T04:06:41.528Z,1.40
2023-01-18T04:09:46.050Z,1.40
2023-01-18T04:12:52.284Z,1.39
2023-01-18T04:15:58.574Z,1.35
2023-01-18T04:19:03.145Z,1.33
2023-01-18T04:22:09.902Z,1.38
2023-01-18T04:25:16.362Z,1.40
2023-01-18T04:28:25.476Z,1.42
2023-01-18T04:31:31.764Z,1.47
2023-01-18T04:34:38.083Z,1.52
2023-01-18T04:37:42.660Z,1.56
2023-01-18T04:40:48.974Z,1.61
2023-01-18T04:43:53.575Z,1.64
2023-01-18T04:46:59.816Z,1.66
2023-01-18T04:50:07.754Z,1.68
2023-01-18T04:53:13.975Z,1.66
2023-01-18T04:56:20.543Z,1.65
2023-01-18T04:59:28.544Z,1.66
2023-01-18T05:02:34.790Z,1.68
2023-01-18T05:05:41.282Z,1.69
2023-01-18T05:08:47.610Z,1.69
2023-01-18T05:11:52.487Z,1.73
2023-01-18T05:14:58.795Z,1.76
2023-01-18T05:18:03.296Z,1.77
2023-01-18T05:21:09.691Z,1.78
2023-01-18T05:24:14.202Z,1.77
2023-01-18T05:27:20.458Z,1.77
2023-01-18T05:30:26.724Z,1.77
2023-01-18T05:33:31.274Z,1.77
2023-01-18T05:36:37.472Z,1.72
2023-01-18T05:39:43.645Z,1.68
2023-01-18T05:42:50.195Z,1.66
2023-01-18T05:45:56.651Z,1.67
2023-01-18T05:49:02.946Z,1.71
2023-01-18T05:52:08.362Z,1.74
2023-01-18T05:55:15.930Z,1.74
2023-01-18T05:58:22.220Z,1.74
2023-01-18T06:01:29.193Z,1.75
2023-01-18T06:04:36.650Z,1.77
2023-01-18T06:07:43.064Z,1.76
2023-01-18T06:10:53.056Z,1.76
2023-01-18T06:13:59.254Z,1.75
2023-01-18T06:17:05.495Z,1.73
2023-01-18T06:20:12.654Z,1.73
2023-01-18T06:23:19.011Z,1.70
2023-01-18T06:26:25.250Z,1.67
2023-01-18T06:29:31.530Z,1.70
2023-01-18T06:32:36.072Z,1.72
2023-01-18T06:35:43.355Z,1.71
2023-01-18T06:38:49.664Z,1.70
2023-01-18T06:41:54.103Z,1.65
2023-01-18T06:45:00.615Z,1.62
2023-01-18T06:48:07.759Z,1.61
2023-01-18T06:51:14.171Z,1.62
2023-01-18T06:54:18.703Z,1.66
2023-01-18T06:57:25.119Z,1.68
2023-01-18T07:00:30.072Z,1.67
2023-01-18T07:03:36.693Z,1.68
2023-01-18T07:06:43.099Z,1.72
2023-01-18T07:09:49.464Z,1.74
2023-01-18T07:12:54.040Z,1.74
2023-01-18T07:16:02.110Z,1.75
2023-01-18T07:19:08.777Z,1.74
2023-01-18T07:22:15.476Z,1.72
2023-01-18T07:25:22.690Z,1.67
2023-01-18T07:28:28.956Z,1.64
2023-01-18T07:31:35.261Z,1.65
2023-01-18T07:34:40.302Z,1.66
2023-01-18T07:37:53.321Z,1.67
2023-01-18T07:41:04.853Z,1.70
2023-01-18T07:44:11.966Z,1.67
2023-01-18T07:47:18.254Z,1.69
2023-01-18T07:50:23.142Z,1.74
2023-01-18T07:53:33.388Z,1.76
2023-01-18T07:56:40.370Z,1.76
2023-01-18T07:59:46.603Z,1.78
2023-01-18T08:02:56.367Z,1.76
2023-01-18T08:06:05.146Z,1.76
2023-01-18T08:09:11.514Z,1.74
2023-01-18T08:12:18.621Z,1.67
2023-01-18T08:15:24.793Z,1.64
2023-01-18T08:18:31.066Z,1.63
2023-01-18T08:21:35.690Z,1.62
2023-01-18T08:24:41.922Z,1.62
2023-01-18T08:27:48.292Z,1.61
2023-01-18T08:30:52.948Z,1.63
2023-01-18T08:33:59.185Z,1.65
2023-01-18T08:37:05.590Z,1.68
2023-01-18T08:40:11.333Z,1.71
2023-01-18T08:43:17.603Z,1.73
2023-01-18T08:46:22.321Z,1.76
2023-01-18T08:49:28.819Z,1.79
2023-01-18T08:52:35.703Z,1.81
2023-01-18T08:55:42.016Z,1.82
2023-01-18T08:58:47.481Z,1.84
2023-01-18T09:01:54.174Z,1.84
2023-01-18T09:05:00.457Z,1.83
2023-01-18T09:08:07.042Z,1.84
2023-01-18T09:11:13.954Z,1.84
2023-01-18T09:14:22.175Z,1.86
2023-01-18T09:17:28.410Z,1.88
2023-01-18T09:20:36.157Z,1.88
2023-01-18T09:23:43.699Z,1.87
2023-01-18T09:26:53.803Z,1.84
2023-01-18T09:30:00.268Z,1.80
2023-01-18T09:33:06.709Z,1.76
2023-01-18T09:36:12.810Z,1.74
2023-01-18T09:39:19.093Z,1.70
2023-01-18T09:42:25.188Z,1.69
2023-01-18T09:45:35.578Z,1.72
2023-01-18T09:48:45.217Z,1.81
2023-01-18T09:52:03.692Z,1.90
2023-01-18T09:55:22.191Z,1.96
2023-01-18T09:58:42.861Z,2.00
2023-01-18T10:01:50.307Z,2.04
2023-01-18T10:05:00.518Z,2.08
2023-01-18T10:08:14.902Z,2.13
2023-01-18T10:11:27.377Z,2.13
2023-01-18T10:14:48.017Z,2.13
2023-01-18T10:18:00.811Z,2.16
2023-01-18T10:21:09.141Z,2.17
2023-01-18T10:24:28.892Z,2.18
2023-01-18T10:28:09.363Z,2.24
2023-01-18T10:31:31.397Z,2.32
2023-01-18T10:34:42.365Z,2.40
2023-01-18T10:37:49.113Z,2.45
2023-01-18T10:40:59.060Z,2.48
2023-01-18T10:44:05.771Z,2.52
2023-01-18T10:47:13.082Z,2.56
2023-01-18T10:50:22.646Z,2.58
2023-01-18T10:53:34.065Z,2.54
2023-01-18T10:56:40.411Z,2.49
2023-01-18T10:59:45.017Z,2.50
2023-01-18T11:02:52.684Z,2.54
2023-01-18T11:06:06.482Z,2.59
2023-01-18T11:09:43.875Z,2.65
2023-01-18T11:12:53.140Z,2.72
2023-01-18T11:16:20.899Z,2.79
2023-01-18T11:19:27.176Z,2.85
2023-01-18T11:22:34.825Z,2.91
2023-01-18T11:25:46.942Z,2.98
2023-01-18T11:29:01.256Z,3.02
2023-01-18T11:32:15.917Z,3.07
2023-01-18T11:35:34.417Z,3.11
2023-01-18T11:38:41.526Z,3.12
2023-01-18T11:41:48.856Z,3.16
2023-01-18T11:45:03.225Z,3.20
2023-01-18T11:48:22.884Z,3.28
2023-01-18T11:51:39.012Z,3.41
2023-01-18T11:54:47.018Z,3.52
2023-01-18T11:57:54.594Z,3.63
2023-01-18T12:01:27.133Z,3.71
2023-01-18T12:04:49.725Z,3.83
2023-01-18T12:08:10.864Z,3.91
2023-01-18T12:11:36.996Z,3.94
2023-01-18T12:14:59.631Z,3.99
2023-01-18T12:18:22.310Z,4.00
2023-01-18T12:21:38.707Z,3.99
2023-01-18T12:24:59.523Z,4.03
2023-01-18T12:28:17.429Z,4.08
2023-01-18T12:31:35.773Z,4.11
2023-01-18T12:34:53.819Z,4.13
2023-01-18T12:38:11.009Z,4.11
2023-01-18T12:41:29.309Z,4.03
2023-01-18T12:44:55.304Z,4.02
2023-01-18T12:48:06.613Z,4.02
2023-01-18T12:51:16.927Z,4.06
2023-01-18T12:54:30.040Z,4.10
2023-01-18T12:57:37.012Z,4.13
2023-01-18T13:00:49.926Z,4.14
2023-01-18T13:04:03.435Z,4.13
2023-01-18T13:07:15.551Z,4.08
2023-01-18T13:10:24.917Z,4.08
2023-01-18T13:13:32.292Z,4.07
2023-01-18T13:16:46.920Z,4.02
2023-01-18T13:19:58.790Z,4.00
2023-01-18T13:23:14.967Z,4.01
2023-01-18T13:26:26.129Z,4.01
2023-01-18T13:29:32.844Z,4.03
2023-01-18T13:32:42.491Z,4.01
2023-01-18T13:35:56.678Z,3.98
2023-01-18T13:39:09.079Z,3.96
2023-01-18T13:42:39.410Z,3.93
2023-01-18T13:49:38.676Z,3.99
2023-01-18T13:52:45.141Z,3.97
2023-01-18T13:56:10.483Z,4.01
2023-01-18T13:59:26.531Z,4.08
2023-01-18T14:02:34.272Z,4.15
2023-01-18T14:05:47.185Z,4.22
2023-01-18T14:08:56.191Z,4.25
2023-01-18T14:12:02.684Z,4.25
2023-01-18T14:15:26.753Z,4.23
2023-01-18T14:18:33.628Z,4.24
2023-01-18T14:21:50.934Z,4.24
2023-01-18T14:25:17.276Z,4.22
2023-01-18T14:28:27.578Z,4.21
2023-01-18T14:31:38.658Z,4.21
2023-01-18T14:34:45.143Z,4.20
2023-01-18T14:37:52.088Z,4.17
2023-01-18T14:41:00.687Z,4.13
2023-01-18T14:44:14.632Z,4.10
2023-01-18T14:47:24.223Z,4.09
2023-01-18T14:50:37.729Z,4.07
2023-01-18T14:53:48.688Z,4.07
2023-01-18T14:57:03.605Z,4.08
2023-01-18T15:00:20.492Z,4.08
2023-01-18T15:03:28.875Z,4.10
2023-01-18T15:06:39.961Z,4.08
2023-01-18T15:09:47.476Z,4.06
2023-01-18T15:12:56.877Z,4.06
2023-01-18T15:16:04.163Z,4.06
2023-01-18T15:19:17.067Z,4.06
2023-01-18T15:22:27.677Z,4.03
2023-01-18T15:25:35.878Z,4.01
2023-01-18T15:28:42.163Z,4.01
2023-01-18T15:31:54.885Z,4.03
2023-01-18T15:35:03.028Z,4.02
2023-01-18T15:38:10.830Z,3.99
2023-01-18T15:41:18.255Z,3.93
2023-01-18T15:44:35.230Z,3.88
2023-01-18T15:47:48.646Z,3.82
2023-01-18T15:50:58.130Z,3.79
2023-01-18T15:54:04.444Z,3.75
2023-01-18T15:57:19.204Z,3.69
2023-01-18T16:00:45.951Z,3.60
2023-01-18T16:04:00.833Z,3.51
2023-01-18T16:07:27.321Z,3.47
2023-01-18T16:10:33.663Z,3.44
2023-01-18T16:13:43.037Z,3.39
2023-01-18T16:16:49.957Z,3.34
2023-01-18T16:19:58.712Z,3.27
2023-01-18T16:23:09.968Z,3.20
2023-01-18T16:26:19.322Z,3.16
2023-01-18T16:29:25.666Z,3.10
2023-01-18T16:32:32.194Z,3.04
2023-01-18T16:35:40.013Z,2.98
2023-01-18T16:38:46.559Z,2.91
2023-01-18T16:41:55.628Z,2.84
2023-01-18T16:45:02.204Z,2.80
2023-01-18T16:48:15.568Z,2.77
2023-01-18T16:51:21.921Z,2.72
2023-01-18T16:54:26.447Z,2.67
2023-01-18T16:57:33.027Z,2.62
2023-01-18T17:00:53.119Z,2.58
2023-01-18T17:03:59.531Z,2.53
2023-01-18T17:07:06.794Z,2.50
2023-01-18T17:10:22.279Z,2.50
2023-01-18T17:13:28.516Z,2.44
2023-01-18T17:16:34.953Z,2.40
2023-01-18T17:19:43.902Z,2.34
2023-01-18T17:22:50.753Z,2.25
2023-01-18T17:25:58.569Z,2.14
2023-01-18T17:29:05.994Z,2.05
2023-01-18T17:32:13.498Z,2.03
2023-01-18T17:35:22.937Z,1.99
2023-01-18T17:41:37.205Z,1.95
2023-01-18T17:44:43.499Z,1.92
2023-01-18T17:47:47.996Z,1.84
2023-01-18T17:50:54.175Z,1.77
2023-01-18T17:54:00.819Z,1.71
2023-01-18T17:57:09.020Z,1.62
2023-01-18T18:00:17.366Z,1.59
2023-01-18T18:03:23.702Z,1.59
2023-01-18T18:06:31.623Z,1.55
2023-01-18T18:09:43.635Z,1.54
2023-01-18T18:12:49.904Z,1.48
2023-01-18T18:15:56.174Z,1.40
2023-01-18T18:19:00.692Z,1.31
2023-01-18T18:22:07.333Z,1.21
2023-01-18T18:25:13.935Z,1.14
2023-01-18T18:28:20.464Z,1.04
2023-01-18T18:31:26.710Z,1.00
2023-01-18T18:34:31.551Z,0.99
2023-01-18T18:37:37.760Z,0.90
2023-01-18T18:40:44.050Z,0.84
2023-01-18T18:43:48.682Z,0.82
2023-01-18T18:46:55.503Z,0.76
2023-01-18T18:50:01.889Z,0.74
2023-01-18T18:53:06.962Z,0.77
2023-01-18T18:56:13.354Z,0.75
2023-01-18T18:59:19.598Z,0.69
2023-01-18T19:02:25.765Z,0.66
2023-01-18T19:05:33.321Z,0.65
2023-01-18T19:08:39.726Z,0.64
2023-01-18T19:11:54.278Z,0.64
2023-01-18T19:15:01.305Z,0.63
2023-01-18T19:18:05.823Z,0.61
2023-01-18T19:21:12.067Z,0.58
2023-01-18T19:24:18.286Z,0.56
2023-01-18T19:27:25.351Z,0.56
2023-01-18T19:30:33.373Z,0.58
2023-01-18T19:33:39.713Z,0.57
2023-01-18T19:36:44.305Z,0.53
2023-01-18T19:39:50.578Z,0.48
2023-01-18T19:42:55.945Z,0.45
2023-01-18T19:46:05.781Z,0.43
2023-01-18T19:49:12.054Z,0.40
2023-01-18T19:52:18.319Z,0.39
2023-01-18T19:55:22.841Z,0.39
2023-01-18T19:58:31.064Z,0.36
2023-01-18T20:01:37.726Z,0.36
2023-01-18T20:04:44.535Z,0.35
2023-01-18T20:07:51.292Z,0.30
2023-01-18T20:11:04.298Z,0.26
2023-01-18T20:14:10.884Z,0.26
2023-01-18T20:17:17.600Z,0.25
2023-01-18T20:20:31.731Z,0.21
2023-01-18T20:23:39.444Z,0.15
2023-01-18T20:26:47.462Z,0.07
2023-01-18T20:29:54.027Z,-0.03
2023-01-18T20:33:00.606Z,-0.05
2023-01-18T20:36:08.334Z,-0.02
2023-01-18T20:39:16.335Z,0.02
2023-01-18T20:42:22.686Z,0.02
2023-01-18T20:45:27.479Z,0.05
2023-01-18T20:48:35.108Z,0.09
2023-01-18T20:51:41.721Z,0.10
2023-01-18T20:54:48.103Z,0.06
2023-01-18T20:57:54.532Z,0.02
2023-01-18T21:01:05.096Z,-0.01
2023-01-18T21:04:11.539Z,-0.04
2023-01-18T21:07:17.731Z,-0.08
2023-01-18T21:10:38.661Z,-0.10
2023-01-18T21:13:45.175Z,-0.11
2023-01-18T21:16:49.725Z,-0.10
2023-01-18T21:19:55.979Z,-0.11
2023-01-18T21:23:02.930Z,-0.13
2023-01-18T21:26:11.587Z,-0.14
2023-01-18T21:29:18.066Z,-0.17
2023-01-18T21:32:24.319Z,-0.26
2023-01-18T21:35:30.570Z,-0.27
2023-01-18T21:38:37.754Z,-0.30
2023-01-18T21:42:01.421Z,-0.30
2023-01-18T21:45:27.966Z,-0.25
2023-01-18T21:48:34.579Z,-0.22
2023-01-18T21:51:58.519Z,-0.19
2023-01-18T21:55:04.937Z,-0.17
2023-01-18T21:58:28.562Z,-0.16
2023-01-18T22:01:39.132Z,-0.19
2023-01-18T22:05:01.715Z,-0.23
2023-01-18T22:08:09.543Z,-0.23
2023-01-18T22:11:15.909Z,-0.22
2023-01-18T22:14:20.465Z,-0.19
2023-01-18T22:17:27.187Z,-0.18
2023-01-18T22:20:33.458Z,-0.17
2023-01-18T22:23:38.029Z,-0.19
2023-01-18T22:26:44.749Z,-0.21
2023-01-18T22:29:51.250Z,-0.22
2023-01-18T22:32:57.502Z,-0.22
2023-01-18T22:36:04.650Z,-0.22
2023-01-18T22:39:12.044Z,-0.20
2023-01-18T22:42:19.020Z,-0.20
2023-01-18T22:45:25.321Z,-0.19
2023-01-18T22:48:29.809Z,-0.20
2023-01-18T22:51:36.600Z,-0.21
2023-01-18T22:54:43.055Z,-0.21
2023-01-18T22:57:49.329Z,-0.19
2023-01-18T23:00:53.868Z,-0.16
2023-01-18T23:04:02.291Z,-0.15
2023-01-18T23:07:08.632Z,-0.17
2023-01-18T23:10:13.357Z,-0.17
2023-01-18T23:13:19.638Z,-0.15
2023-01-18T23:16:40.540Z,-0.11
2023-01-18T23:19:46.760Z,-0.12
2023-01-18T23:22:53.018Z,-0.15
2023-01-18T23:25:57.937Z,-0.21
2023-01-18T23:29:04.308Z,-0.25
2023-01-18T23:32:09.246Z,-0.28
2023-01-18T23:35:15.450Z,-0.29
2023-01-18T23:38:21.738Z,-0.25
2023-01-18T23:41:43.776Z,-0.21
2023-01-18T23:45:07.300Z,-0.17
2023-01-18T23:48:33.099Z,-0.12
2023-01-18T23:51:56.848Z,-0.09
2023-01-18T23:55:03.137Z,-0.08
2023-01-18T23:58:07.645Z,-0.07
